createdAt,value
2019-04-26T00:00:01.167Z,76.98
2019-04-26T00:01:01.080Z,76.98
2019-04-26T00:02:01.087Z,78.31
2019-04-26T00:03:01.048Z,77.94
2019-04-26T00:04:02.099Z,77.12
2019-04-26T00:05:01.029Z,77.84
2019-04-26T00:06:01.088Z,77.73
2019-04-26T00:07:01.007Z,78.66
2019-04-26T00:08:01.110Z,78.59
2019-04-26T00:09:02.051Z,78.28
2019-04-26T00:10:00.972Z,78.49
2019-04-26T00:11:01.012Z,77.67
2019-04-26T00:12:00.952Z,78.39
2019-04-26T00:13:01.973Z,78.19
2019-04-26T00:14:00.959Z,78.49
2019-04-26T00:15:00.920Z,78.19
2019-04-26T00:16:02.995Z,78.90
2019-04-26T00:17:00.885Z,79.31
2019-04-26T00:18:00.991Z,79.21
2019-04-26T00:19:00.886Z,79.45
2019-04-26T00:20:00.868Z,79.45
2019-04-26T00:21:00.889Z,79.45
2019-04-26T00:22:00.828Z,79.11
2019-04-26T00:23:02.877Z,79.45
2019-04-26T00:24:00.829Z,79.45
2019-04-26T00:25:00.799Z,79.55
2019-04-26T00:26:00.791Z,79.66
2019-04-26T00:27:00.801Z,79.55
2019-04-26T00:28:00.771Z,79.66
2019-04-26T00:29:00.871Z,79.86
2019-04-26T00:30:00.741Z,79.55
2019-04-26T00:31:02.823Z,79.96
2019-04-26T00:32:00.734Z,79.66
2019-04-26T00:33:02.744Z,79.66
2019-04-26T00:34:00.696Z,79.93
2019-04-26T00:35:00.796Z,79.96
2019-04-26T00:36:00.685Z,80.47
2019-04-26T00:37:01.697Z,80.37
2019-04-26T00:38:00.647Z,80.44
2019-04-26T00:39:00.722Z,79.96
2019-04-26T00:40:00.658Z,79.45
2019-04-26T00:41:00.645Z,79.96
2019-04-26T00:42:00.610Z,79.55
2019-04-26T00:43:01.308Z,80.47
2019-04-26T00:44:00.580Z,80.37
2019-04-26T00:45:01.690Z,80.68
2019-04-26T00:46:00.570Z,80.23
2019-04-26T00:47:00.661Z,80.37
2019-04-26T00:48:00.542Z,80.47
2019-04-26T00:49:00.592Z,80.44
2019-04-26T00:50:00.532Z,80.58
2019-04-26T00:51:00.542Z,80.37
2019-04-26T00:52:00.497Z,80.07
2019-04-26T00:53:00.575Z,79.96
2019-04-26T00:54:00.475Z,80.27
2019-04-26T00:55:00.546Z,79.96
2019-04-26T00:56:00.445Z,79.96
2019-04-26T00:57:00.446Z,79.86
2019-04-26T00:58:00.438Z,80.62
2019-04-26T00:59:00.468Z,80.47
2019-04-26T01:00:00.422Z,80.47
2019-04-26T01:01:00.408Z,79.90
2019-04-26T01:02:00.389Z,80.51
2019-04-26T01:03:00.449Z,80.62
2019-04-26T01:04:00.360Z,80.92
2019-04-26T01:05:01.451Z,81.23
2019-04-26T01:06:00.487Z,81.43
2019-04-26T01:07:00.422Z,81.54
2019-04-26T01:08:00.392Z,80.86
2019-04-26T01:09:00.313Z,81.68
2019-04-26T01:10:00.374Z,81.74
2019-04-26T01:11:00.274Z,81.57
2019-04-26T01:12:00.365Z,82.60
2019-04-26T01:13:00.336Z,83.42
2019-04-26T01:14:00.246Z,83.12
2019-04-26T01:15:00.306Z,82.70
2019-04-26T01:16:00.216Z,83.42
2019-04-26T01:17:00.311Z,83.22
2019-04-26T01:18:00.207Z,83.15
2019-04-26T01:19:00.239Z,82.95
2019-04-26T01:20:00.189Z,83.56
2019-04-26T01:21:00.280Z,83.67
2019-04-26T01:22:00.170Z,83.87
2019-04-26T01:23:01.234Z,83.77
2019-04-26T01:24:00.181Z,84.28
2019-04-26T01:25:00.144Z,83.87
2019-04-26T01:26:01.134Z,83.26
2019-04-26T01:27:00.093Z,83.46
2019-04-26T01:28:00.153Z,84.01
2019-04-26T01:29:00.074Z,83.81
2019-04-26T01:30:01.154Z,85.55
2019-04-26T01:31:00.059Z,84.84
2019-04-26T01:32:00.126Z,84.88
2019-04-26T01:33:00.036Z,85.04
2019-04-26T01:34:01.076Z,84.94
2019-04-26T01:35:00.030Z,85.35
2019-04-26T01:36:12.479Z,85.35
2019-04-26T01:37:00.988Z,85.39
2019-04-26T01:38:00.030Z,85.28
2019-04-26T01:38:59.969Z,84.98
2019-04-26T01:39:59.979Z,85.08
2019-04-26T01:40:59.940Z,85.18
2019-04-26T01:42:01.021Z,85.18
2019-04-26T01:42:59.933Z,85.49
2019-04-26T01:43:59.944Z,85.18
2019-04-26T01:44:59.923Z,85.18
2019-04-26T01:45:59.973Z,85.39
2019-04-26T01:46:59.883Z,85.60
2019-04-26T01:47:59.914Z,85.63
2019-04-26T01:48:59.854Z,86.35
2019-04-26T01:49:59.945Z,86.15
2019-04-26T01:50:59.855Z,85.39
2019-04-26T01:51:59.887Z,85.53
2019-04-26T01:52:59.808Z,85.33
2019-04-26T01:54:00.847Z,85.33
2019-04-26T01:54:59.801Z,85.33
2019-04-26T01:55:59.798Z,85.33
2019-04-26T01:56:59.760Z,85.53
2019-04-26T01:57:59.799Z,85.43
2019-04-26T01:58:59.750Z,85.78
2019-04-26T01:59:59.820Z,86.19
2019-04-26T02:00:59.731Z,87.22
2019-04-26T02:01:59.761Z,86.91
2019-04-26T02:02:59.702Z,86.91
2019-04-26T02:04:00.722Z,87.57
2019-04-26T02:04:59.675Z,87.84
2019-04-26T02:05:59.793Z,87.42
2019-04-26T02:06:59.704Z,86.29
2019-04-26T02:07:59.655Z,85.92
2019-04-26T02:08:59.747Z,85.78
2019-04-26T02:09:59.627Z,85.88
2019-04-26T02:10:59.727Z,85.57
2019-04-26T02:11:59.587Z,86.50
2019-04-26T02:12:59.609Z,87.32
2019-04-26T02:13:59.578Z,87.52
2019-04-26T02:14:59.648Z,87.57
2019-04-26T02:15:59.562Z,87.32
2019-04-26T02:17:00.609Z,87.42
2019-04-26T02:17:59.561Z,87.57
2019-04-26T02:18:59.510Z,87.63
2019-04-26T02:19:59.591Z,87.77
2019-04-26T02:20:59.511Z,87.57
2019-04-26T02:22:00.553Z,87.87
2019-04-26T02:22:59.502Z,88.08
2019-04-26T02:23:59.456Z,87.67
2019-04-26T02:25:01.479Z,88.08
2019-04-26T02:25:59.454Z,87.87
2019-04-26T02:26:59.466Z,87.87
2019-04-26T02:27:59.415Z,88.18
2019-04-26T02:28:59.506Z,88.12
2019-04-26T02:29:59.397Z,88.43
2019-04-26T02:30:59.478Z,88.64
2019-04-26T02:31:59.370Z,88.33
2019-04-26T02:32:59.480Z,88.95
2019-04-26T02:34:00.370Z,88.84
2019-04-26T02:34:59.330Z,88.53
2019-04-26T02:36:00.439Z,88.64
2019-04-26T02:36:59.372Z,88.53
2019-04-26T02:37:59.421Z,88.95
2019-04-26T02:39:00.400Z,88.95
2019-04-26T02:39:59.282Z,89.05
2019-04-26T02:41:00.353Z,88.12
2019-04-26T02:41:59.272Z,87.92
2019-04-26T02:43:00.274Z,87.81
2019-04-26T02:43:59.245Z,88.12
2019-04-26T02:44:59.295Z,87.75
2019-04-26T02:45:59.216Z,88.26
2019-04-26T02:46:59.266Z,88.74
2019-04-26T02:47:59.196Z,88.99
2019-04-26T02:48:59.267Z,88.68
2019-04-26T02:49:59.167Z,88.17
2019-04-26T02:51:01.251Z,88.06
2019-04-26T02:51:59.169Z,88.37
2019-04-26T02:52:59.250Z,88.57
2019-04-26T02:53:59.120Z,88.99
2019-04-26T02:54:59.112Z,89.09
2019-04-26T02:55:59.116Z,88.47
2019-04-26T02:56:59.150Z,88.68
2019-04-26T02:57:59.073Z,90.12
2019-04-26T02:59:00.181Z,90.12
2019-04-26T02:59:59.063Z,88.89
2019-04-26T03:00:59.063Z,88.57
2019-04-26T03:01:59.097Z,88.89
2019-04-26T03:02:59.037Z,89.19
2019-04-26T03:04:01.035Z,89.03
2019-04-26T03:04:59.025Z,89.34
2019-04-26T03:05:58.985Z,88.72
2019-04-26T03:07:03.293Z,88.82
2019-04-26T03:07:59.063Z,89.85
2019-04-26T03:08:58.969Z,90.67
2019-04-26T03:10:01.040Z,90.57
2019-04-26T03:10:58.930Z,89.85
2019-04-26T03:11:58.949Z,89.65
2019-04-26T03:13:00.939Z,89.65
2019-04-26T03:13:58.900Z,89.95
2019-04-26T03:15:13.185Z,90.16
2019-04-26T03:15:59.885Z,90.06
2019-04-26T03:16:58.894Z,90.06
2019-04-26T03:17:58.852Z,90.00
2019-04-26T03:18:58.913Z,89.89
2019-04-26T03:19:58.844Z,89.89
2019-04-26T03:20:58.844Z,90.61
2019-04-26T03:21:59.834Z,90.97
2019-04-26T03:22:58.825Z,90.72
2019-04-26T03:23:59.898Z,90.82
2019-04-26T03:24:58.775Z,90.51
2019-04-26T03:26:00.826Z,89.69
2019-04-26T03:26:58.757Z,90.10
2019-04-26T03:27:58.767Z,90.00
2019-04-26T03:28:59.808Z,89.94
2019-04-26T03:30:18.542Z,90.66
2019-04-26T03:30:59.719Z,90.20
2019-04-26T03:31:58.789Z,90.72
2019-04-26T03:32:58.901Z,90.51
2019-04-26T03:33:58.797Z,90.25
2019-04-26T03:34:58.794Z,90.14
2019-04-26T03:35:58.916Z,90.25
2019-04-26T03:36:58.731Z,90.86
2019-04-26T03:37:59.673Z,90.76
2019-04-26T03:38:58.623Z,90.45
2019-04-26T03:39:58.633Z,90.55
2019-04-26T03:40:58.593Z,90.66
2019-04-26T03:41:58.676Z,90.14
2019-04-26T03:42:58.594Z,90.55
2019-04-26T03:43:58.556Z,90.41
2019-04-26T03:44:58.577Z,90.76
2019-04-26T03:45:58.548Z,90.14
2019-04-26T03:46:58.613Z,90.86
2019-04-26T03:47:58.531Z,89.79
2019-04-26T03:48:58.509Z,90.66
2019-04-26T03:49:58.500Z,90.66
2019-04-26T03:50:58.579Z,89.83
2019-04-26T03:51:58.469Z,90.55
2019-04-26T03:52:58.560Z,90.45
2019-04-26T03:53:59.512Z,89.83
2019-04-26T03:54:58.442Z,90.04
2019-04-26T03:55:58.522Z,89.94
2019-04-26T03:56:58.424Z,89.94
2019-04-26T03:57:58.513Z,89.94
2019-04-26T03:58:58.399Z,89.83
2019-04-26T03:59:58.384Z,90.04
2019-04-26T04:00:58.463Z,90.04
2019-04-26T04:01:58.365Z,89.94
2019-04-26T04:02:58.397Z,89.94
2019-04-26T04:03:58.356Z,90.70
2019-04-26T04:04:58.337Z,90.28
2019-04-26T04:05:58.397Z,90.59
2019-04-26T04:07:04.759Z,90.45
2019-04-26T04:07:59.384Z,90.45
2019-04-26T04:08:58.299Z,90.86
2019-04-26T04:09:58.378Z,90.76
2019-04-26T04:10:58.259Z,91.07
2019-04-26T04:12:11.216Z,90.59
2019-04-26T04:12:59.252Z,89.83
2019-04-26T04:13:58.345Z,89.05
2019-04-26T04:14:58.335Z,88.74
2019-04-26T04:15:58.203Z,88.84
2019-04-26T04:16:58.254Z,88.59
2019-04-26T04:17:58.175Z,88.90
2019-04-26T04:18:58.233Z,89.25
2019-04-26T04:19:58.163Z,89.87
2019-04-26T04:20:58.167Z,90.08
2019-04-26T04:21:58.136Z,90.19
2019-04-26T04:22:58.156Z,90.19
2019-04-26T04:23:58.137Z,89.87
2019-04-26T04:24:58.207Z,90.76
2019-04-26T04:25:58.091Z,90.80
2019-04-26T04:26:58.138Z,90.45
2019-04-26T04:27:58.079Z,90.66
2019-04-26T04:28:58.130Z,89.98
2019-04-26T04:29:58.046Z,89.98
2019-04-26T04:31:00.050Z,89.62
2019-04-26T04:31:58.086Z,90.04
2019-04-26T04:32:58.011Z,90.14
2019-04-26T04:33:58.052Z,89.83
2019-04-26T04:34:57.989Z,89.83
2019-04-26T04:35:59.073Z,90.66
2019-04-26T04:36:58.023Z,89.73
2019-04-26T04:38:08.760Z,89.11
2019-04-26T04:39:11.282Z,89.22
2019-04-26T04:39:58.934Z,88.70
2019-04-26T04:40:59.015Z,89.22
2019-04-26T04:41:57.905Z,89.73
2019-04-26T04:42:57.970Z,88.90
2019-04-26T04:43:57.947Z,89.28
2019-04-26T04:44:57.873Z,88.70
2019-04-26T04:45:57.974Z,88.80
2019-04-26T04:46:57.858Z,89.32
2019-04-26T04:47:57.847Z,88.70
2019-04-26T04:48:57.872Z,89.11
2019-04-26T04:49:57.813Z,89.52
2019-04-26T04:50:57.870Z,89.38
2019-04-26T04:51:57.828Z,88.80
2019-04-26T04:52:57.771Z,89.48
2019-04-26T04:53:57.794Z,89.28
2019-04-26T04:55:06.676Z,89.48
2019-04-26T04:55:58.743Z,89.38
2019-04-26T04:56:57.774Z,88.76
2019-04-26T04:57:57.714Z,87.93
2019-04-26T04:58:57.714Z,87.83
2019-04-26T04:59:57.824Z,87.73
2019-04-26T05:00:57.685Z,87.42
2019-04-26T05:01:58.736Z,87.52
2019-04-26T05:02:57.667Z,87.83
2019-04-26T05:03:57.646Z,88.04
2019-04-26T05:04:57.681Z,88.14
2019-04-26T05:06:07.308Z,87.93
2019-04-26T05:06:58.618Z,87.83
2019-04-26T05:08:06.496Z,88.20
2019-04-26T05:08:58.609Z,87.83
2019-04-26T05:09:57.610Z,87.63
2019-04-26T05:10:57.631Z,87.83
2019-04-26T05:11:57.563Z,87.73
2019-04-26T05:12:57.560Z,87.42
2019-04-26T05:13:57.542Z,88.10
2019-04-26T05:14:57.562Z,87.99
2019-04-26T05:15:59.613Z,87.69
2019-04-26T05:16:57.503Z,87.48
2019-04-26T05:17:58.524Z,87.85
2019-04-26T05:18:57.475Z,87.96
2019-04-26T05:19:57.474Z,87.03
2019-04-26T05:20:57.455Z,86.79
2019-04-26T05:21:57.475Z,86.37
2019-04-26T05:22:57.426Z,85.75
2019-04-26T05:23:57.507Z,86.16
2019-04-26T05:24:57.427Z,85.30
2019-04-26T05:25:57.409Z,85.20
2019-04-26T05:26:57.429Z,84.58
2019-04-26T05:27:57.369Z,84.13
2019-04-26T05:28:58.480Z,83.72
2019-04-26T05:29:57.371Z,83.78
2019-04-26T05:30:57.340Z,82.76
2019-04-26T05:31:57.330Z,82.45
2019-04-26T05:32:59.373Z,81.59
2019-04-26T05:33:57.311Z,81.69
2019-04-26T05:34:57.404Z,80.97
2019-04-26T05:35:57.423Z,80.77
2019-04-26T05:36:57.284Z,80.52
2019-04-26T05:37:57.375Z,80.63
2019-04-26T05:38:57.605Z,80.49
2019-04-26T05:39:57.455Z,80.69
2019-04-26T05:40:57.801Z,80.38
2019-04-26T05:41:58.256Z,79.42
2019-04-26T05:42:58.009Z,78.91
2019-04-26T05:43:58.016Z,79.11
2019-04-26T05:44:57.207Z,79.01
2019-04-26T05:45:58.072Z,79.01
2019-04-26T05:46:57.886Z,78.60
2019-04-26T05:48:09.333Z,78.70
2019-04-26T05:48:58.140Z,78.36
2019-04-26T05:49:58.005Z,78.46
2019-04-26T05:50:57.887Z,78.67
2019-04-26T05:51:57.832Z,79.08
2019-04-26T05:52:57.245Z,79.08
2019-04-26T05:53:58.183Z,78.53
2019-04-26T05:54:58.178Z,77.71
2019-04-26T05:55:58.030Z,77.20
2019-04-26T05:56:57.054Z,76.89
2019-04-26T05:57:57.125Z,77.61
2019-04-26T05:59:00.177Z,77.33
2019-04-26T05:59:57.066Z,77.64
2019-04-26T06:00:57.865Z,77.20
2019-04-26T06:01:57.096Z,76.58
2019-04-26T06:02:56.977Z,76.78
2019-04-26T06:03:57.037Z,76.75
2019-04-26T06:04:57.185Z,76.54
2019-04-26T06:05:57.017Z,76.54
2019-04-26T06:06:57.268Z,76.34
2019-04-26T06:07:56.930Z,76.31
2019-04-26T06:08:57.458Z,76.34
2019-04-26T06:09:58.991Z,75.93
2019-04-26T06:10:57.819Z,76.72
2019-04-26T06:11:56.982Z,76.72
2019-04-26T06:12:58.758Z,75.38
2019-04-26T06:13:57.757Z,75.42
2019-04-26T06:14:56.883Z,73.13
2019-04-26T06:15:57.988Z,69.90
2019-04-26T06:16:56.982Z,65.60
2019-04-26T06:17:57.305Z,61.05
2019-04-26T06:18:57.303Z,56.86
2019-04-26T06:19:57.298Z,53.58
2019-04-26T06:20:57.857Z,50.25
2019-04-26T06:21:57.902Z,47.46
2019-04-26T06:22:58.208Z,45.99
2019-04-26T06:23:57.814Z,44.34
2019-04-26T06:24:56.759Z,43.62
2019-04-26T06:25:58.294Z,44.46
2019-04-26T06:27:09.305Z,44.56
2019-04-26T06:27:58.390Z,44.12
2019-04-26T06:28:56.670Z,44.32
2019-04-26T06:29:56.665Z,44.32
2019-04-26T06:30:57.254Z,42.33
2019-04-26T06:31:56.642Z,40.88
2019-04-26T06:33:03.176Z,40.32
2019-04-26T06:33:58.712Z,40.52
2019-04-26T06:34:57.197Z,39.80
2019-04-26T06:35:57.274Z,39.76
2019-04-26T06:36:57.592Z,40.56
2019-04-26T06:37:57.347Z,40.58
2019-04-26T06:38:56.567Z,40.01
2019-04-26T06:39:56.607Z,38.45
2019-04-26T06:40:56.542Z,37.20
2019-04-26T06:41:56.761Z,36.94
2019-04-26T06:42:56.519Z,35.60
2019-04-26T06:43:56.549Z,35.22
2019-04-26T06:44:56.509Z,35.31
2019-04-26T06:45:56.895Z,34.52
2019-04-26T06:46:57.649Z,34.20
2019-04-26T06:47:56.925Z,33.19
2019-04-26T06:48:57.070Z,33.87
2019-04-26T06:49:57.642Z,33.84
2019-04-26T06:50:58.383Z,33.82
2019-04-26T06:51:57.098Z,33.82
2019-04-26T06:52:56.799Z,33.89
2019-04-26T06:53:57.203Z,32.49
2019-04-26T06:54:57.793Z,33.09
2019-04-26T06:55:56.505Z,32.28
2019-04-26T06:56:57.437Z,32.98
2019-04-26T06:57:59.402Z,32.47
2019-04-26T06:58:57.874Z,33.24
2019-04-26T06:59:57.415Z,33.84
2019-04-26T07:00:57.451Z,33.65
2019-04-26T07:01:57.559Z,34.69
2019-04-26T07:02:57.439Z,35.19
2019-04-26T07:03:58.181Z,35.25
2019-04-26T07:04:56.297Z,34.56
2019-04-26T07:05:56.251Z,35.39
2019-04-26T07:06:56.368Z,36.30
2019-04-26T07:07:56.233Z,36.69
2019-04-26T07:08:57.673Z,35.01
2019-04-26T07:09:56.193Z,36.18
2019-04-26T07:10:56.229Z,36.77
2019-04-26T07:11:56.204Z,34.50
2019-04-26T07:12:56.237Z,35.46
2019-04-26T07:13:56.160Z,37.00
2019-04-26T07:14:56.167Z,39.04
2019-04-26T07:15:56.587Z,40.62
2019-04-26T07:16:56.140Z,40.78
2019-04-26T07:17:56.259Z,42.02
2019-04-26T07:18:56.101Z,43.33
2019-04-26T07:19:58.438Z,43.91
2019-04-26T07:20:56.079Z,42.96
2019-04-26T07:21:56.191Z,44.48
2019-04-26T07:22:56.061Z,44.16
2019-04-26T07:23:56.081Z,43.26
2019-04-26T07:24:56.032Z,43.85
2019-04-26T07:25:56.122Z,44.88
2019-04-26T07:26:56.033Z,45.30
2019-04-26T07:28:03.742Z,45.02
2019-04-26T07:28:56.987Z,46.41
2019-04-26T07:29:56.130Z,47.03
2019-04-26T07:30:55.976Z,46.85
2019-04-26T07:31:55.966Z,46.75
2019-04-26T07:32:55.937Z,47.47
2019-04-26T07:33:58.013Z,47.30
2019-04-26T07:34:55.929Z,47.00
2019-04-26T07:35:58.910Z,47.50
2019-04-26T07:36:56.011Z,47.62
2019-04-26T07:37:55.900Z,47.70
2019-04-26T07:39:09.050Z,48.48
2019-04-26T07:39:56.861Z,47.47
2019-04-26T07:40:55.945Z,47.07
2019-04-26T07:41:55.873Z,46.65
2019-04-26T07:42:56.893Z,45.10
2019-04-26T07:43:55.814Z,44.32
2019-04-26T07:44:56.834Z,40.80
2019-04-26T07:45:55.805Z,38.89
2019-04-26T07:46:55.895Z,37.62
2019-04-26T07:47:55.778Z,35.88
2019-04-26T07:48:56.799Z,35.52
2019-04-26T07:49:55.756Z,33.82
2019-04-26T07:50:56.850Z,32.52
2019-04-26T07:51:55.739Z,32.32
2019-04-26T07:52:55.728Z,33.39
2019-04-26T07:53:56.761Z,33.92
2019-04-26T07:54:55.690Z,34.46
2019-04-26T07:55:55.761Z,34.91
2019-04-26T07:56:55.695Z,35.42
2019-04-26T07:57:55.681Z,37.13
2019-04-26T07:58:56.693Z,39.50
2019-04-26T07:59:55.633Z,39.92
2019-04-26T08:00:55.704Z,37.30
2019-04-26T08:01:55.624Z,37.20
2019-04-26T08:02:55.609Z,37.08
2019-04-26T08:03:55.605Z,38.54
2019-04-26T08:04:55.686Z,40.24
2019-04-26T08:05:55.567Z,40.40
2019-04-26T08:06:56.679Z,40.04
2019-04-26T08:07:55.558Z,38.54
2019-04-26T08:08:56.578Z,39.28
2019-04-26T08:09:59.899Z,39.60
2019-04-26T08:10:55.589Z,40.67
2019-04-26T08:11:55.510Z,40.78
2019-04-26T08:12:55.560Z,41.16
2019-04-26T08:13:55.481Z,39.90
2019-04-26T08:14:57.502Z,40.40
2019-04-26T08:15:55.463Z,39.70
2019-04-26T08:16:56.514Z,40.00
2019-04-26T08:17:55.454Z,39.50
2019-04-26T08:18:55.427Z,39.80
2019-04-26T08:19:57.575Z,39.26
2019-04-26T08:20:55.465Z,38.45
2019-04-26T08:21:55.395Z,39.12
2019-04-26T08:22:57.507Z,38.11
2019-04-26T08:23:56.531Z,36.27
2019-04-26T08:24:55.358Z,33.69
2019-04-26T08:25:55.410Z,35.44
2019-04-26T08:27:08.076Z,37.40
2019-04-26T08:27:56.339Z,37.20
2019-04-26T08:28:56.674Z,36.30
2019-04-26T08:29:55.311Z,36.19
2019-04-26T08:30:55.352Z,36.66
2019-04-26T08:31:57.839Z,36.75
2019-04-26T08:32:55.333Z,37.28
2019-04-26T08:33:55.273Z,36.15
2019-04-26T08:34:55.243Z,37.08
2019-04-26T08:35:55.369Z,37.10
2019-04-26T08:36:57.382Z,37.99
2019-04-26T08:37:57.480Z,37.46
2019-04-26T08:38:55.196Z,37.20
2019-04-26T08:39:55.186Z,37.51
2019-04-26T08:40:55.239Z,36.72
2019-04-26T08:41:55.199Z,37.48
2019-04-26T08:42:57.447Z,37.40
2019-04-26T08:43:55.845Z,37.63
2019-04-26T08:44:55.140Z,39.58
2019-04-26T08:46:02.861Z,40.14
2019-04-26T08:46:57.074Z,40.97
2019-04-26T08:47:56.171Z,40.23
2019-04-26T08:48:58.075Z,39.92
2019-04-26T08:49:55.072Z,39.82
2019-04-26T08:50:55.063Z,40.81
2019-04-26T08:51:55.967Z,39.28
2019-04-26T08:52:55.057Z,38.46
2019-04-26T08:53:55.055Z,38.59
2019-04-26T08:54:55.017Z,39.32
2019-04-26T08:55:55.017Z,41.17
2019-04-26T08:56:55.027Z,42.21
2019-04-26T08:57:54.988Z,42.55
2019-04-26T08:58:54.999Z,43.90
2019-04-26T08:59:54.972Z,45.62
2019-04-26T09:00:54.999Z,45.58
2019-04-26T09:01:57.012Z,42.15
2019-04-26T09:02:54.942Z,40.12
2019-04-26T09:03:55.051Z,41.71
2019-04-26T09:04:54.902Z,41.44
2019-04-26T09:05:54.934Z,41.08
2019-04-26T09:06:54.894Z,41.97
2019-04-26T09:07:57.622Z,41.39
2019-04-26T09:08:54.884Z,40.20
2019-04-26T09:09:57.420Z,39.78
2019-04-26T09:10:55.847Z,39.06
2019-04-26T09:11:59.836Z,40.06
2019-04-26T09:12:55.840Z,37.56
2019-04-26T09:13:54.827Z,37.68
2019-04-26T09:14:55.878Z,37.62
2019-04-26T09:15:54.797Z,38.53
2019-04-26T09:16:54.771Z,38.95
2019-04-26T09:17:54.769Z,37.24
2019-04-26T09:18:59.389Z,34.28
2019-04-26T09:19:54.730Z,32.64
2019-04-26T09:20:54.768Z,33.89
2019-04-26T09:21:54.775Z,32.98
2019-04-26T09:22:56.639Z,31.50
2019-04-26T09:23:55.733Z,31.23
2019-04-26T09:24:55.103Z,31.12
2019-04-26T09:25:59.433Z,33.70
2019-04-26T09:26:54.656Z,36.17
2019-04-26T09:27:54.655Z,36.60
2019-04-26T09:28:56.614Z,36.10
2019-04-26T09:29:54.727Z,38.21
2019-04-26T09:30:54.628Z,39.44
2019-04-26T09:31:55.639Z,38.64
2019-04-26T09:32:54.798Z,40.52
2019-04-26T09:33:54.579Z,42.25
2019-04-26T09:34:54.661Z,42.46
2019-04-26T09:35:54.571Z,43.27
2019-04-26T09:36:54.662Z,43.55
2019-04-26T09:37:54.531Z,41.89
2019-04-26T09:38:54.526Z,40.80
2019-04-26T09:39:54.606Z,41.11
2019-04-26T09:40:56.254Z,43.04
2019-04-26T09:41:55.514Z,43.05
2019-04-26T09:42:54.474Z,42.57
2019-04-26T09:43:54.902Z,42.68
2019-04-26T09:44:56.792Z,43.88
2019-04-26T09:45:54.458Z,42.97
2019-04-26T09:46:54.538Z,42.66
2019-04-26T09:47:54.428Z,42.76
2019-04-26T09:48:54.422Z,42.61
2019-04-26T09:49:54.474Z,43.24
2019-04-26T09:50:54.510Z,43.27
2019-04-26T09:51:54.381Z,44.40
2019-04-26T09:52:54.441Z,44.60
2019-04-26T09:53:54.352Z,44.28
2019-04-26T09:54:54.362Z,43.18
2019-04-26T09:55:54.453Z,44.22
2019-04-26T09:56:54.314Z,44.62
2019-04-26T09:57:57.013Z,45.92
2019-04-26T09:58:54.305Z,45.72
2019-04-26T09:59:54.310Z,45.10
2019-04-26T10:00:54.571Z,44.10
2019-04-26T10:01:55.381Z,44.40
2019-04-26T10:02:54.257Z,45.20
2019-04-26T10:04:01.868Z,45.02
2019-04-26T10:04:54.309Z,44.12
2019-04-26T10:05:55.879Z,45.12
2019-04-26T10:06:54.300Z,47.53
2019-04-26T10:07:54.191Z,45.65
2019-04-26T10:08:54.231Z,45.65
2019-04-26T10:09:56.490Z,45.54
2019-04-26T10:10:56.500Z,44.95
2019-04-26T10:11:54.164Z,45.34
2019-04-26T10:12:54.214Z,45.54
2019-04-26T10:13:54.141Z,45.45
2019-04-26T10:14:54.146Z,44.84
2019-04-26T10:15:58.013Z,44.54
2019-04-26T10:16:55.206Z,44.67
2019-04-26T10:17:54.111Z,46.65
2019-04-26T10:18:58.406Z,45.67
2019-04-26T10:19:54.066Z,45.87
2019-04-26T10:20:54.073Z,45.47
2019-04-26T10:21:55.160Z,45.59
2019-04-26T10:22:54.030Z,47.05
2019-04-26T10:23:54.060Z,45.62
2019-04-26T10:24:54.012Z,45.54
2019-04-26T10:25:54.002Z,46.35
2019-04-26T10:26:55.448Z,45.75
2019-04-26T10:27:54.032Z,45.75
2019-04-26T10:28:53.964Z,46.25
2019-04-26T10:29:56.589Z,45.77
2019-04-26T10:30:54.961Z,45.87
2019-04-26T10:31:54.006Z,46.04
2019-04-26T10:32:53.915Z,45.34
2019-04-26T10:33:53.950Z,45.65
2019-04-26T10:34:53.902Z,45.83
2019-04-26T10:35:56.705Z,45.42
2019-04-26T10:36:56.771Z,45.62
2019-04-26T10:37:53.921Z,45.30
2019-04-26T10:38:54.494Z,45.83
2019-04-26T10:39:53.851Z,45.80
2019-04-26T10:40:53.840Z,44.98
2019-04-26T10:41:53.812Z,45.40
2019-04-26T10:42:53.853Z,45.72
2019-04-26T10:43:53.803Z,45.65
2019-04-26T10:44:53.896Z,47.47
2019-04-26T10:45:54.852Z,48.28
2019-04-26T10:46:55.585Z,47.17
2019-04-26T10:47:53.744Z,48.35
2019-04-26T10:48:53.768Z,48.20
2019-04-26T10:49:54.346Z,47.97
2019-04-26T10:50:53.847Z,47.27
2019-04-26T10:51:53.698Z,48.48
2019-04-26T10:52:55.551Z,47.35
2019-04-26T10:53:53.709Z,46.83
2019-04-26T10:54:53.679Z,46.81
2019-04-26T10:55:53.781Z,46.50
2019-04-26T10:56:54.999Z,46.81
2019-04-26T10:57:53.642Z,45.58
2019-04-26T10:58:53.632Z,46.86
2019-04-26T10:59:53.723Z,47.28
2019-04-26T11:00:54.110Z,47.00
2019-04-26T11:01:56.873Z,47.43
2019-04-26T11:02:53.578Z,48.03
2019-04-26T11:03:53.584Z,47.55
2019-04-26T11:04:53.566Z,47.05
2019-04-26T11:05:55.247Z,46.73
2019-04-26T11:06:53.576Z,46.28
2019-04-26T11:07:55.608Z,45.36
2019-04-26T11:08:53.518Z,46.18
2019-04-26T11:09:53.611Z,45.58
2019-04-26T11:10:53.489Z,45.80
2019-04-26T11:11:53.583Z,47.23
2019-04-26T11:12:53.471Z,47.17
2019-04-26T11:13:53.454Z,47.50
2019-04-26T11:14:56.962Z,47.92
2019-04-26T11:15:54.536Z,48.40
2019-04-26T11:16:53.455Z,48.12
2019-04-26T11:17:53.444Z,48.52
2019-04-26T11:18:53.670Z,48.50
2019-04-26T11:19:53.485Z,47.30
2019-04-26T11:20:53.386Z,47.80
2019-04-26T11:21:54.922Z,48.10
2019-04-26T11:22:53.361Z,48.22
2019-04-26T11:23:53.457Z,48.52
2019-04-26T11:24:53.908Z,48.43
2019-04-26T11:25:53.439Z,48.32
2019-04-26T11:26:53.330Z,47.60
2019-04-26T11:27:53.329Z,47.50
2019-04-26T11:28:55.837Z,48.10
2019-04-26T11:29:54.197Z,47.17
2019-04-26T11:30:57.018Z,46.69
2019-04-26T11:31:54.209Z,47.80
2019-04-26T11:32:53.244Z,48.72
2019-04-26T11:34:04.718Z,48.63
2019-04-26T11:34:58.174Z,48.02
2019-04-26T11:35:53.268Z,49.22
2019-04-26T11:36:53.215Z,49.13
2019-04-26T11:37:55.154Z,47.19
2019-04-26T11:38:53.191Z,47.67
2019-04-26T11:39:54.274Z,48.58
2019-04-26T11:41:05.354Z,48.18
2019-04-26T11:41:54.157Z,47.00
2019-04-26T11:42:53.158Z,47.50
2019-04-26T11:43:54.566Z,47.70
2019-04-26T11:45:05.448Z,47.60
2019-04-26T11:46:03.806Z,48.20
2019-04-26T11:46:54.114Z,47.92
2019-04-26T11:47:59.942Z,48.22
2019-04-26T11:48:58.852Z,48.43
2019-04-26T11:49:55.144Z,48.44
2019-04-26T11:50:53.655Z,48.14
2019-04-26T11:51:54.125Z,48.44
2019-04-26T11:52:53.024Z,49.45
2019-04-26T11:53:54.323Z,48.59
2019-04-26T11:54:55.119Z,49.10
2019-04-26T11:55:53.037Z,49.90
2019-04-26T11:56:53.017Z,50.60
2019-04-26T11:57:53.069Z,50.15
2019-04-26T11:58:56.920Z,51.48
2019-04-26T11:59:54.029Z,51.59
2019-04-26T12:00:52.932Z,51.89
2019-04-26T12:01:52.910Z,52.92
2019-04-26T12:02:52.922Z,52.92
2019-04-26T12:03:55.606Z,53.25
2019-04-26T12:04:55.082Z,53.45
2019-04-26T12:05:52.962Z,53.25
2019-04-26T12:06:52.855Z,53.55
2019-04-26T12:07:52.939Z,54.25
2019-04-26T12:08:52.914Z,53.50
2019-04-26T12:09:52.825Z,54.00
2019-04-26T12:10:54.905Z,54.10
2019-04-26T12:12:03.978Z,54.21
2019-04-26T12:13:05.175Z,54.10
2019-04-26T12:13:55.371Z,53.80
2019-04-26T12:14:53.858Z,54.21
2019-04-26T12:15:52.770Z,54.94
2019-04-26T12:16:59.148Z,55.24
2019-04-26T12:17:58.622Z,55.14
2019-04-26T12:18:52.731Z,54.91
2019-04-26T12:19:53.406Z,54.41
2019-04-26T12:20:52.722Z,55.24
2019-04-26T12:21:53.776Z,54.94
2019-04-26T12:22:52.704Z,55.77
2019-04-26T12:23:55.601Z,56.78
2019-04-26T12:24:52.659Z,55.69
2019-04-26T12:25:52.732Z,56.10
2019-04-26T12:26:55.984Z,56.81
2019-04-26T12:27:53.531Z,56.00
2019-04-26T12:28:52.617Z,56.71
2019-04-26T12:29:53.888Z,56.71
2019-04-26T12:30:54.140Z,56.20
2019-04-26T12:31:53.608Z,56.84
2019-04-26T12:32:52.579Z,56.02
2019-04-26T12:33:52.562Z,56.84
2019-04-26T12:34:53.291Z,57.78
2019-04-26T12:35:57.067Z,57.87
2019-04-26T12:36:52.522Z,57.98
2019-04-26T12:37:54.786Z,57.78
2019-04-26T12:38:53.439Z,57.40
2019-04-26T12:39:52.483Z,58.11
2019-04-26T12:40:52.504Z,57.60
2019-04-26T12:41:52.474Z,57.90
2019-04-26T12:42:54.526Z,58.00
2019-04-26T12:43:54.483Z,57.40
2019-04-26T12:44:53.437Z,58.11
2019-04-26T12:45:52.586Z,57.70
2019-04-26T12:46:52.528Z,58.64
2019-04-26T12:47:52.430Z,59.14
2019-04-26T12:48:52.479Z,59.68
2019-04-26T12:49:54.521Z,59.48
2019-04-26T12:50:53.365Z,59.68
2019-04-26T12:51:53.381Z,60.59